sensor_id;sensor_type;location;lat;lon;timestamp;P1;durP1;ratioP1;P2;durP2;ratioP2
39750;SDS011;37579;51.074;17.004;2022-12-11T00:00:08;9.20;;;6.82;;
39750;SDS011;37579;51.074;17.004;2022-12-11T00:02:34;10.10;;;7.20;;
39750;SDS011;37579;51.074;17.004;2022-12-11T00:05:00;9.48;;;7.07;;
39750;SDS011;37579;51.074;17.004;2022-12-11T00:07:26;11.18;;;7.35;;
39750;SDS011;37579;51.074;17.004;2022-12-11T00:09:51;10.88;;;6.82;;
39750;SDS011;37579;51.074;17.004;2022-12-11T00:12:17;9.93;;;7.10;;
39750;SDS011;37579;51.074;17.004;2022-12-11T00:14:43;8.38;;;6.53;;
39750;SDS011;37579;51.074;17.004;2022-12-11T00:17:09;8.73;;;6.05;;
39750;SDS011;37579;51.074;17.004;2022-12-11T00:19:35;10.18;;;6.75;;
39750;SDS011;37579;51.074;17.004;2022-12-11T00:22:00;9.68;;;7.10;;
39750;SDS011;37579;51.074;17.004;2022-12-11T00:24:26;9.82;;;6.65;;
39750;SDS011;37579;51.074;17.004;2022-12-11T00:26:52;10.02;;;7.47;;
39750;SDS011;37579;51.074;17.004;2022-12-11T00:29:18;9.38;;;6.93;;
39750;SDS011;37579;51.074;17.004;2022-12-11T00:31:44;9.20;;;6.95;;
39750;SDS011;37579;51.074;17.004;2022-12-11T00:34:09;8.70;;;6.60;;
39750;SDS011;37579;51.074;17.004;2022-12-11T00:36:36;8.75;;;6.72;;
39750;SDS011;37579;51.074;17.004;2022-12-11T00:39:02;9.20;;;6.85;;
39750;SDS011;37579;51.074;17.004;2022-12-11T00:41:29;9.52;;;7.05;;
39750;SDS011;37579;51.074;17.004;2022-12-11T00:43:56;10.60;;;7.03;;
39750;SDS011;37579;51.074;17.004;2022-12-11T00:46:22;8.88;;;6.75;;
39750;SDS011;37579;51.074;17.004;2022-12-11T00:48:48;9.43;;;6.75;;
39750;SDS011;37579;51.074;17.004;2022-12-11T00:51:14;9.40;;;7.15;;
39750;SDS011;37579;51.074;17.004;2022-12-11T00:53:41;9.38;;;6.93;;
39750;SDS011;37579;51.074;17.004;2022-12-11T00:56:11;8.73;;;6.68;;
39750;SDS011;37579;51.074;17.004;2022-12-11T00:58:39;9.75;;;7.15;;
39750;SDS011;37579;51.074;17.004;2022-12-11T01:01:05;11.45;;;6.53;;
39750;SDS011;37579;51.074;17.004;2022-12-11T01:03:33;8.60;;;6.82;;
39750;SDS011;37579;51.074;17.004;2022-12-11T01:05:59;9.25;;;6.60;;
39750;SDS011;37579;51.074;17.004;2022-12-11T01:08:25;7.88;;;6.40;;
39750;SDS011;37579;51.074;17.004;2022-12-11T01:10:50;7.78;;;6.43;;
39750;SDS011;37579;51.074;17.004;2022-12-11T01:13:24;8.98;;;7.13;;
39750;SDS011;37579;51.074;17.004;2022-12-11T01:15:50;9.20;;;7.15;;
39750;SDS011;37579;51.074;17.004;2022-12-11T01:18:16;8.65;;;6.80;;
39750;SDS011;37579;51.074;17.004;2022-12-11T01:20:42;9.32;;;6.70;;
39750;SDS011;37579;51.074;17.004;2022-12-11T01:23:08;8.88;;;6.47;;
39750;SDS011;37579;51.074;17.004;2022-12-11T01:25:37;8.40;;;6.82;;
39750;SDS011;37579;51.074;17.004;2022-12-11T01:28:02;9.02;;;7.00;;
39750;SDS011;37579;51.074;17.004;2022-12-11T01:30:29;8.40;;;6.32;;
39750;SDS011;37579;51.074;17.004;2022-12-11T01:32:55;10.32;;;6.85;;
39750;SDS011;37579;51.074;17.004;2022-12-11T01:35:20;10.25;;;7.15;;
39750;SDS011;37579;51.074;17.004;2022-12-11T01:37:47;9.68;;;6.93;;
39750;SDS011;37579;51.074;17.004;2022-12-11T01:40:13;10.02;;;7.30;;
39750;SDS011;37579;51.074;17.004;2022-12-11T01:42:41;8.23;;;6.63;;
39750;SDS011;37579;51.074;17.004;2022-12-11T01:47:51;10.45;;;7.28;;
39750;SDS011;37579;51.074;17.004;2022-12-11T01:50:21;9.35;;;7.13;;
39750;SDS011;37579;51.074;17.004;2022-12-11T01:52:47;8.18;;;6.38;;
39750;SDS011;37579;51.074;17.004;2022-12-11T01:55:14;9.25;;;6.80;;
39750;SDS011;37579;51.074;17.004;2022-12-11T01:57:42;10.75;;;6.88;;
39750;SDS011;37579;51.074;17.004;2022-12-11T02:00:11;8.23;;;6.32;;
39750;SDS011;37579;51.074;17.004;2022-12-11T02:02:42;8.40;;;6.53;;
39750;SDS011;37579;51.074;17.004;2022-12-11T02:05:09;8.43;;;6.47;;
39750;SDS011;37579;51.074;17.004;2022-12-11T02:07:39;8.50;;;6.75;;
39750;SDS011;37579;51.074;17.004;2022-12-11T02:10:15;9.18;;;6.60;;
39750;SDS011;37579;51.074;17.004;2022-12-11T02:12:44;10.63;;;6.93;;
39750;SDS011;37579;51.074;17.004;2022-12-11T02:15:25;8.40;;;6.65;;
39750;SDS011;37579;51.074;17.004;2022-12-11T02:18:02;9.07;;;6.68;;
39750;SDS011;37579;51.074;17.004;2022-12-11T02:20:47;8.80;;;6.85;;
39750;SDS011;37579;51.074;17.004;2022-12-11T02:28:53;9.50;;;7.13;;
39750;SDS011;37579;51.074;17.004;2022-12-11T02:31:23;8.60;;;6.80;;
39750;SDS011;37579;51.074;17.004;2022-12-11T02:34:02;8.13;;;6.13;;
39750;SDS011;37579;51.074;17.004;2022-12-11T02:36:56;7.95;;;6.47;;
39750;SDS011;37579;51.074;17.004;2022-12-11T02:39:27;9.48;;;6.78;;
39750;SDS011;37579;51.074;17.004;2022-12-11T02:41:55;9.25;;;6.68;;
39750;SDS011;37579;51.074;17.004;2022-12-11T02:44:26;8.30;;;6.68;;
39750;SDS011;37579;51.074;17.004;2022-12-11T02:46:54;9.80;;;7.17;;
39750;SDS011;37579;51.074;17.004;2022-12-11T02:49:22;8.95;;;6.70;;
39750;SDS011;37579;51.074;17.004;2022-12-11T02:51:49;7.85;;;6.18;;
39750;SDS011;37579;51.074;17.004;2022-12-11T02:54:18;9.40;;;6.95;;
39750;SDS011;37579;51.074;17.004;2022-12-11T02:59:35;9.40;;;6.80;;
39750;SDS011;37579;51.074;17.004;2022-12-11T03:02:06;8.18;;;6.07;;
39750;SDS011;37579;51.074;17.004;2022-12-11T03:04:33;7.43;;;6.28;;
39750;SDS011;37579;51.074;17.004;2022-12-11T03:07:06;8.02;;;6.32;;
39750;SDS011;37579;51.074;17.004;2022-12-11T03:09:50;8.57;;;6.78;;
39750;SDS011;37579;51.074;17.004;2022-12-11T03:12:18;8.00;;;6.72;;
39750;SDS011;37579;51.074;17.004;2022-12-11T03:14:48;7.97;;;6.33;;
39750;SDS011;37579;51.074;17.004;2022-12-11T03:17:16;8.10;;;6.35;;
39750;SDS011;37579;51.074;17.004;2022-12-11T03:23:01;8.32;;;6.32;;
39750;SDS011;37579;51.074;17.004;2022-12-11T03:25:33;8.80;;;6.72;;
39750;SDS011;37579;51.074;17.004;2022-12-11T03:28:30;8.23;;;6.57;;
39750;SDS011;37579;51.074;17.004;2022-12-11T03:31:11;7.18;;;6.00;;
39750;SDS011;37579;51.074;17.004;2022-12-11T03:33:46;9.40;;;6.47;;
39750;SDS011;37579;51.074;17.004;2022-12-11T03:36:19;8.63;;;6.50;;
39750;SDS011;37579;51.074;17.004;2022-12-11T03:38:50;8.43;;;6.40;;
39750;SDS011;37579;51.074;17.004;2022-12-11T03:41:21;8.15;;;6.28;;
39750;SDS011;37579;51.074;17.004;2022-12-11T03:43:50;8.32;;;5.95;;
39750;SDS011;37579;51.074;17.004;2022-12-11T03:46:19;8.88;;;6.53;;
39750;SDS011;37579;51.074;17.004;2022-12-11T03:48:49;8.35;;;6.35;;
39750;SDS011;37579;51.074;17.004;2022-12-11T03:51:17;7.25;;;6.07;;
39750;SDS011;37579;51.074;17.004;2022-12-11T03:53:43;7.95;;;6.05;;
39750;SDS011;37579;51.074;17.004;2022-12-11T03:56:10;7.95;;;6.20;;
39750;SDS011;37579;51.074;17.004;2022-12-11T03:58:40;7.53;;;6.07;;
39750;SDS011;37579;51.074;17.004;2022-12-11T04:01:09;8.73;;;6.63;;
39750;SDS011;37579;51.074;17.004;2022-12-11T04:03:35;8.55;;;6.25;;
39750;SDS011;37579;51.074;17.004;2022-12-11T04:06:01;7.22;;;5.60;;
39750;SDS011;37579;51.074;17.004;2022-12-11T04:08:27;8.00;;;6.03;;
39750;SDS011;37579;51.074;17.004;2022-12-11T04:10:52;8.43;;;6.57;;
39750;SDS011;37579;51.074;17.004;2022-12-11T04:13:39;7.82;;;5.93;;
39750;SDS011;37579;51.074;17.004;2022-12-11T04:16:06;9.05;;;5.78;;
39750;SDS011;37579;51.074;17.004;2022-12-11T04:18:32;7.75;;;6.13;;
39750;SDS011;37579;51.074;17.004;2022-12-11T04:21:17;10.05;;;6.40;;
39750;SDS011;37579;51.074;17.004;2022-12-11T04:24:01;6.68;;;5.80;;
39750;SDS011;37579;51.074;17.004;2022-12-11T04:26:39;7.72;;;6.03;;
39750;SDS011;37579;51.074;17.004;2022-12-11T04:29:05;6.70;;;5.45;;
39750;SDS011;37579;51.074;17.004;2022-12-11T04:31:31;7.97;;;5.97;;
39750;SDS011;37579;51.074;17.004;2022-12-11T04:33:57;7.93;;;6.50;;
39750;SDS011;37579;51.074;17.004;2022-12-11T04:36:23;7.30;;;5.65;;
39750;SDS011;37579;51.074;17.004;2022-12-11T04:38:48;7.32;;;5.95;;
39750;SDS011;37579;51.074;17.004;2022-12-11T04:41:14;6.93;;;5.97;;
39750;SDS011;37579;51.074;17.004;2022-12-11T04:43:41;7.55;;;6.15;;
39750;SDS011;37579;51.074;17.004;2022-12-11T04:46:19;8.63;;;6.25;;
39750;SDS011;37579;51.074;17.004;2022-12-11T04:48:46;7.50;;;5.63;;
39750;SDS011;37579;51.074;17.004;2022-12-11T04:51:12;6.53;;;5.75;;
39750;SDS011;37579;51.074;17.004;2022-12-11T04:53:39;7.22;;;5.82;;
39750;SDS011;37579;51.074;17.004;2022-12-11T04:56:08;7.57;;;6.25;;
39750;SDS011;37579;51.074;17.004;2022-12-11T04:58:37;7.38;;;5.85;;
39750;SDS011;37579;51.074;17.004;2022-12-11T05:01:21;6.95;;;5.80;;
39750;SDS011;37579;51.074;17.004;2022-12-11T05:03:47;6.35;;;5.25;;
39750;SDS011;37579;51.074;17.004;2022-12-11T05:06:13;6.78;;;5.57;;
39750;SDS011;37579;51.074;17.004;2022-12-11T05:08:40;6.88;;;5.60;;
39750;SDS011;37579;51.074;17.004;2022-12-11T05:11:08;8.02;;;6.22;;
39750;SDS011;37579;51.074;17.004;2022-12-11T05:13:36;7.85;;;5.97;;
39750;SDS011;37579;51.074;17.004;2022-12-11T05:16:03;7.22;;;5.70;;
39750;SDS011;37579;51.074;17.004;2022-12-11T05:18:30;7.55;;;6.00;;
39750;SDS011;37579;51.074;17.004;2022-12-11T05:20:59;6.78;;;5.72;;
39750;SDS011;37579;51.074;17.004;2022-12-11T05:23:27;7.60;;;6.03;;
39750;SDS011;37579;51.074;17.004;2022-12-11T05:25:53;6.47;;;5.53;;
39750;SDS011;37579;51.074;17.004;2022-12-11T05:28:20;6.78;;;5.30;;
39750;SDS011;37579;51.074;17.004;2022-12-11T05:30:47;7.25;;;5.68;;
39750;SDS011;37579;51.074;17.004;2022-12-11T05:33:13;8.40;;;6.10;;
39750;SDS011;37579;51.074;17.004;2022-12-11T05:35:38;6.70;;;5.38;;
39750;SDS011;37579;51.074;17.004;2022-12-11T05:38:11;7.93;;;6.60;;
39750;SDS011;37579;51.074;17.004;2022-12-11T05:40:37;6.63;;;5.00;;
39750;SDS011;37579;51.074;17.004;2022-12-11T05:43:03;7.32;;;6.00;;
39750;SDS011;37579;51.074;17.004;2022-12-11T05:45:28;7.85;;;5.97;;
39750;SDS011;37579;51.074;17.004;2022-12-11T05:47:54;7.00;;;5.88;;
39750;SDS011;37579;51.074;17.004;2022-12-11T05:50:20;6.72;;;5.95;;
39750;SDS011;37579;51.074;17.004;2022-12-11T05:52:46;6.63;;;5.15;;
39750;SDS011;37579;51.074;17.004;2022-12-11T05:55:12;6.72;;;5.60;;
39750;SDS011;37579;51.074;17.004;2022-12-11T05:57:38;6.78;;;5.28;;
39750;SDS011;37579;51.074;17.004;2022-12-11T06:00:04;8.23;;;5.72;;
39750;SDS011;37579;51.074;17.004;2022-12-11T06:02:30;7.07;;;5.90;;
39750;SDS011;37579;51.074;17.004;2022-12-11T06:04:59;7.30;;;5.40;;
39750;SDS011;37579;51.074;17.004;2022-12-11T06:07:25;6.88;;;5.55;;
39750;SDS011;37579;51.074;17.004;2022-12-11T06:09:50;6.20;;;5.38;;
39750;SDS011;37579;51.074;17.004;2022-12-11T06:12:16;6.85;;;5.55;;
39750;SDS011;37579;51.074;17.004;2022-12-11T06:14:42;5.95;;;5.10;;
39750;SDS011;37579;51.074;17.004;2022-12-11T06:17:08;6.65;;;5.10;;
39750;SDS011;37579;51.074;17.004;2022-12-11T06:19:33;8.02;;;5.78;;
39750;SDS011;37579;51.074;17.004;2022-12-11T06:21:59;5.50;;;4.95;;
39750;SDS011;37579;51.074;17.004;2022-12-11T06:24:25;7.38;;;6.03;;
39750;SDS011;37579;51.074;17.004;2022-12-11T06:26:51;6.55;;;5.32;;
39750;SDS011;37579;51.074;17.004;2022-12-11T06:29:17;6.20;;;5.22;;
39750;SDS011;37579;51.074;17.004;2022-12-11T06:31:42;7.18;;;5.72;;
39750;SDS011;37579;51.074;17.004;2022-12-11T06:34:10;5.95;;;4.90;;
39750;SDS011;37579;51.074;17.004;2022-12-11T06:36:36;6.05;;;5.10;;
39750;SDS011;37579;51.074;17.004;2022-12-11T06:39:02;5.93;;;5.03;;
39750;SDS011;37579;51.074;17.004;2022-12-11T06:41:28;7.43;;;5.03;;
39750;SDS011;37579;51.074;17.004;2022-12-11T06:43:54;6.65;;;5.00;;
39750;SDS011;37579;51.074;17.004;2022-12-11T06:46:20;5.82;;;4.80;;
39750;SDS011;37579;51.074;17.004;2022-12-11T06:48:46;5.85;;;4.93;;
39750;SDS011;37579;51.074;17.004;2022-12-11T06:51:15;6.53;;;5.13;;
39750;SDS011;37579;51.074;17.004;2022-12-11T06:53:43;5.85;;;4.78;;
39750;SDS011;37579;51.074;17.004;2022-12-11T06:56:13;6.03;;;4.68;;
39750;SDS011;37579;51.074;17.004;2022-12-11T06:58:40;6.28;;;5.18;;
39750;SDS011;37579;51.074;17.004;2022-12-11T07:01:13;5.70;;;4.85;;
39750;SDS011;37579;51.074;17.004;2022-12-11T07:03:39;7.28;;;5.13;;
39750;SDS011;37579;51.074;17.004;2022-12-11T07:06:05;5.30;;;4.68;;
39750;SDS011;37579;51.074;17.004;2022-12-11T07:08:31;6.88;;;5.47;;
39750;SDS011;37579;51.074;17.004;2022-12-11T07:11:01;6.20;;;5.03;;
39750;SDS011;37579;51.074;17.004;2022-12-11T07:13:31;5.82;;;5.00;;
39750;SDS011;37579;51.074;17.004;2022-12-11T07:15:58;6.10;;;4.80;;
39750;SDS011;37579;51.074;17.004;2022-12-11T07:18:26;6.22;;;5.05;;
39750;SDS011;37579;51.074;17.004;2022-12-11T07:20:52;5.75;;;5.03;;
39750;SDS011;37579;51.074;17.004;2022-12-11T07:23:18;6.80;;;4.85;;
39750;SDS011;37579;51.074;17.004;2022-12-11T07:25:43;5.60;;;4.88;;
39750;SDS011;37579;51.074;17.004;2022-12-11T07:28:10;5.82;;;4.93;;
39750;SDS011;37579;51.074;17.004;2022-12-11T07:30:37;5.57;;;4.90;;
39750;SDS011;37579;51.074;17.004;2022-12-11T07:33:03;5.65;;;4.80;;
39750;SDS011;37579;51.074;17.004;2022-12-11T07:35:28;7.20;;;4.65;;
39750;SDS011;37579;51.074;17.004;2022-12-11T07:37:54;8.35;;;4.70;;
39750;SDS011;37579;51.074;17.004;2022-12-11T07:40:20;6.03;;;4.30;;
39750;SDS011;37579;51.074;17.004;2022-12-11T07:42:46;5.60;;;4.63;;
39750;SDS011;37579;51.074;17.004;2022-12-11T07:45:11;5.80;;;4.72;;
39750;SDS011;37579;51.074;17.004;2022-12-11T07:47:37;8.77;;;4.78;;
39750;SDS011;37579;51.074;17.004;2022-12-11T07:50:04;5.85;;;4.10;;
39750;SDS011;37579;51.074;17.004;2022-12-11T07:52:31;7.70;;;4.32;;
39750;SDS011;37579;51.074;17.004;2022-12-11T07:54:58;5.78;;;4.68;;
39750;SDS011;37579;51.074;17.004;2022-12-11T07:57:24;7.15;;;4.65;;
39750;SDS011;37579;51.074;17.004;2022-12-11T07:59:50;5.47;;;4.38;;
39750;SDS011;37579;51.074;17.004;2022-12-11T08:02:16;5.25;;;4.10;;
39750;SDS011;37579;51.074;17.004;2022-12-11T08:04:41;5.93;;;4.18;;
39750;SDS011;37579;51.074;17.004;2022-12-11T08:07:07;5.60;;;4.30;;
39750;SDS011;37579;51.074;17.004;2022-12-11T08:09:33;6.53;;;4.35;;
39750;SDS011;37579;51.074;17.004;2022-12-11T08:11:59;6.70;;;4.28;;
39750;SDS011;37579;51.074;17.004;2022-12-11T08:14:25;5.70;;;4.32;;
39750;SDS011;37579;51.074;17.004;2022-12-11T08:16:50;7.47;;;4.30;;
39750;SDS011;37579;51.074;17.004;2022-12-11T08:19:16;8.15;;;4.50;;
39750;SDS011;37579;51.074;17.004;2022-12-11T08:21:43;5.28;;;4.25;;
39750;SDS011;37579;51.074;17.004;2022-12-11T08:24:09;5.72;;;4.50;;
39750;SDS011;37579;51.074;17.004;2022-12-11T08:26:35;9.15;;;4.20;;
39750;SDS011;37579;51.074;17.004;2022-12-11T08:29:01;5.22;;;4.30;;
39750;SDS011;37579;51.074;17.004;2022-12-11T08:31:27;7.93;;;4.15;;
39750;SDS011;37579;51.074;17.004;2022-12-11T08:33:55;5.47;;;4.32;;
39750;SDS011;37579;51.074;17.004;2022-12-11T08:36:21;8.02;;;4.97;;
39750;SDS011;37579;51.074;17.004;2022-12-11T08:38:48;10.20;;;4.78;;
39750;SDS011;37579;51.074;17.004;2022-12-11T08:41:15;8.05;;;4.70;;
39750;SDS011;37579;51.074;17.004;2022-12-11T08:43:47;9.73;;;4.50;;
39750;SDS011;37579;51.074;17.004;2022-12-11T08:46:13;5.80;;;4.53;;
39750;SDS011;37579;51.074;17.004;2022-12-11T08:48:40;6.65;;;4.40;;
39750;SDS011;37579;51.074;17.004;2022-12-11T08:51:07;7.78;;;4.43;;
39750;SDS011;37579;51.074;17.004;2022-12-11T08:53:38;7.68;;;4.60;;
39750;SDS011;37579;51.074;17.004;2022-12-11T08:56:09;7.47;;;4.95;;
39750;SDS011;37579;51.074;17.004;2022-12-11T08:58:40;8.05;;;4.35;;
39750;SDS011;37579;51.074;17.004;2022-12-11T09:03:37;7.60;;;4.35;;
39750;SDS011;37579;51.074;17.004;2022-12-11T09:06:08;7.45;;;4.75;;
39750;SDS011;37579;51.074;17.004;2022-12-11T09:08:36;6.72;;;4.10;;
39750;SDS011;37579;51.074;17.004;2022-12-11T09:11:06;7.18;;;3.90;;
39750;SDS011;37579;51.074;17.004;2022-12-11T09:13:33;8.52;;;3.97;;
39750;SDS011;37579;51.074;17.004;2022-12-11T09:15:59;7.63;;;3.88;;
39750;SDS011;37579;51.074;17.004;2022-12-11T09:18:25;8.73;;;4.10;;
39750;SDS011;37579;51.074;17.004;2022-12-11T09:21:00;5.18;;;3.78;;
39750;SDS011;37579;51.074;17.004;2022-12-11T09:23:27;5.72;;;3.88;;
39750;SDS011;37579;51.074;17.004;2022-12-11T09:25:53;5.90;;;3.83;;
39750;SDS011;37579;51.074;17.004;2022-12-11T09:28:19;6.05;;;3.47;;
39750;SDS011;37579;51.074;17.004;2022-12-11T09:30:45;5.60;;;4.07;;
39750;SDS011;37579;51.074;17.004;2022-12-11T09:33:11;5.05;;;3.60;;
39750;SDS011;37579;51.074;17.004;2022-12-11T09:35:37;4.72;;;3.35;;
39750;SDS011;37579;51.074;17.004;2022-12-11T09:38:02;6.03;;;3.78;;
39750;SDS011;37579;51.074;17.004;2022-12-11T09:40:28;6.18;;;3.42;;
39750;SDS011;37579;51.074;17.004;2022-12-11T09:42:57;6.57;;;3.60;;
39750;SDS011;37579;51.074;17.004;2022-12-11T09:45:30;6.53;;;3.38;;
39750;SDS011;37579;51.074;17.004;2022-12-11T09:47:56;6.57;;;3.70;;
39750;SDS011;37579;51.074;17.004;2022-12-11T09:50:25;5.90;;;3.63;;
39750;SDS011;37579;51.074;17.004;2022-12-11T10:01:02;15.95;;;9.13;;
39750;SDS011;37579;51.074;17.004;2022-12-11T10:06:32;40.97;;;18.60;;
39750;SDS011;37579;51.074;17.004;2022-12-11T10:17:24;90.88;;;40.30;;
39750;SDS011;37579;51.074;17.004;2022-12-11T10:19:55;98.03;;;40.42;;
39750;SDS011;37579;51.074;17.004;2022-12-11T10:22:26;93.50;;;42.85;;
39750;SDS011;37579;51.074;17.004;2022-12-11T10:24:58;95.03;;;42.30;;
39750;SDS011;37579;51.074;17.004;2022-12-11T10:27:31;97.32;;;43.90;;
39750;SDS011;37579;51.074;17.004;2022-12-11T10:30:00;96.70;;;42.72;;
39750;SDS011;37579;51.074;17.004;2022-12-11T10:38:11;90.55;;;43.72;;
39750;SDS011;37579;51.074;17.004;2022-12-11T10:40:39;94.30;;;43.22;;
39750;SDS011;37579;51.074;17.004;2022-12-11T10:43:09;95.60;;;42.13;;
39750;SDS011;37579;51.074;17.004;2022-12-11T10:45:35;89.25;;;40.70;;
39750;SDS011;37579;51.074;17.004;2022-12-11T10:48:19;91.93;;;42.85;;
39750;SDS011;37579;51.074;17.004;2022-12-11T10:50:54;92.70;;;42.08;;
39750;SDS011;37579;51.074;17.004;2022-12-11T10:53:28;86.32;;;41.42;;
39750;SDS011;37579;51.074;17.004;2022-12-11T10:55:55;93.03;;;42.53;;
39750;SDS011;37579;51.074;17.004;2022-12-11T10:58:25;82.05;;;38.88;;
39750;SDS011;37579;51.074;17.004;2022-12-11T11:00:59;79.40;;;38.88;;
39750;SDS011;37579;51.074;17.004;2022-12-11T11:03:33;78.20;;;38.15;;
39750;SDS011;37579;51.074;17.004;2022-12-11T11:06:22;82.28;;;36.92;;
39750;SDS011;37579;51.074;17.004;2022-12-11T11:08:48;85.10;;;38.38;;
39750;SDS011;37579;51.074;17.004;2022-12-11T11:11:20;80.75;;;36.45;;
39750;SDS011;37579;51.074;17.004;2022-12-11T11:13:47;78.35;;;37.30;;
39750;SDS011;37579;51.074;17.004;2022-12-11T11:16:14;79.68;;;34.58;;
39750;SDS011;37579;51.074;17.004;2022-12-11T11:18:48;75.00;;;35.13;;
39750;SDS011;37579;51.074;17.004;2022-12-11T11:21:22;67.50;;;33.60;;
39750;SDS011;37579;51.074;17.004;2022-12-11T11:23:51;69.68;;;33.83;;
39750;SDS011;37579;51.074;17.004;2022-12-11T11:26:18;63.55;;;31.60;;
39750;SDS011;37579;51.074;17.004;2022-12-11T11:28:48;67.57;;;32.15;;
39750;SDS011;37579;51.074;17.004;2022-12-11T11:31:16;64.05;;;29.95;;
39750;SDS011;37579;51.074;17.004;2022-12-11T11:36:22;60.67;;;28.42;;
39750;SDS011;37579;51.074;17.004;2022-12-11T11:41:55;57.30;;;27.45;;
39750;SDS011;37579;51.074;17.004;2022-12-11T11:44:51;55.15;;;26.85;;
39750;SDS011;37579;51.074;17.004;2022-12-11T11:47:23;55.53;;;25.50;;
39750;SDS011;37579;51.074;17.004;2022-12-11T11:52:33;49.65;;;22.77;;
39750;SDS011;37579;51.074;17.004;2022-12-11T12:00:41;47.25;;;21.25;;
39750;SDS011;37579;51.074;17.004;2022-12-11T12:03:14;49.20;;;21.05;;
39750;SDS011;37579;51.074;17.004;2022-12-11T12:08:26;39.05;;;19.05;;
39750;SDS011;37579;51.074;17.004;2022-12-11T12:11:27;36.90;;;19.92;;
39750;SDS011;37579;51.074;17.004;2022-12-11T12:19:49;35.25;;;17.77;;
39750;SDS011;37579;51.074;17.004;2022-12-11T12:25:17;40.30;;;17.20;;
39750;SDS011;37579;51.074;17.004;2022-12-11T12:33:58;40.97;;;18.60;;
39750;SDS011;37579;51.074;17.004;2022-12-11T12:45:30;34.90;;;15.13;;
39750;SDS011;37579;51.074;17.004;2022-12-11T12:48:08;32.53;;;15.23;;
39750;SDS011;37579;51.074;17.004;2022-12-11T12:50:39;30.45;;;14.80;;
39750;SDS011;37579;51.074;17.004;2022-12-11T12:53:08;30.60;;;13.57;;
39750;SDS011;37579;51.074;17.004;2022-12-11T12:55:40;30.05;;;13.15;;
39750;SDS011;37579;51.074;17.004;2022-12-11T12:58:06;33.45;;;13.13;;
39750;SDS011;37579;51.074;17.004;2022-12-11T13:00:48;28.83;;;13.05;;
39750;SDS011;37579;51.074;17.004;2022-12-11T13:05:54;24.05;;;13.20;;
39750;SDS011;37579;51.074;17.004;2022-12-11T13:08:27;24.23;;;11.77;;
39750;SDS011;37579;51.074;17.004;2022-12-11T13:11:11;24.17;;;11.68;;
39750;SDS011;37579;51.074;17.004;2022-12-11T13:13:41;25.73;;;10.75;;
39750;SDS011;37579;51.074;17.004;2022-12-11T13:18:42;24.40;;;11.02;;
39750;SDS011;37579;51.074;17.004;2022-12-11T13:24:13;22.20;;;10.70;;
39750;SDS011;37579;51.074;17.004;2022-12-11T13:26:41;22.80;;;10.02;;
39750;SDS011;37579;51.074;17.004;2022-12-11T13:31:57;19.65;;;9.38;;
39750;SDS011;37579;51.074;17.004;2022-12-11T13:34:26;19.30;;;9.13;;
39750;SDS011;37579;51.074;17.004;2022-12-11T13:36:56;22.13;;;10.18;;
39750;SDS011;37579;51.074;17.004;2022-12-11T13:39:26;19.60;;;9.35;;
39750;SDS011;37579;51.074;17.004;2022-12-11T13:42:04;17.58;;;9.45;;
39750;SDS011;37579;51.074;17.004;2022-12-11T13:44:34;15.70;;;9.10;;
39750;SDS011;37579;51.074;17.004;2022-12-11T13:47:04;17.00;;;8.35;;
39750;SDS011;37579;51.074;17.004;2022-12-11T13:49:35;16.05;;;8.48;;
39750;SDS011;37579;51.074;17.004;2022-12-11T13:52:06;15.82;;;7.60;;
39750;SDS011;37579;51.074;17.004;2022-12-11T13:54:45;16.20;;;8.57;;
39750;SDS011;37579;51.074;17.004;2022-12-11T13:57:17;13.38;;;8.13;;
39750;SDS011;37579;51.074;17.004;2022-12-11T13:59:51;16.02;;;8.45;;
39750;SDS011;37579;51.074;17.004;2022-12-11T14:02:20;16.63;;;7.32;;
39750;SDS011;37579;51.074;17.004;2022-12-11T14:05:00;15.68;;;7.43;;
39750;SDS011;37579;51.074;17.004;2022-12-11T14:07:31;17.63;;;7.97;;
39750;SDS011;37579;51.074;17.004;2022-12-11T14:10:03;14.68;;;7.30;;
39750;SDS011;37579;51.074;17.004;2022-12-11T14:14:59;13.60;;;6.47;;
39750;SDS011;37579;51.074;17.004;2022-12-11T14:17:27;13.70;;;6.40;;
39750;SDS011;37579;51.074;17.004;2022-12-11T14:19:59;12.68;;;6.35;;
39750;SDS011;37579;51.074;17.004;2022-12-11T14:22:28;12.25;;;6.50;;
39750;SDS011;37579;51.074;17.004;2022-12-11T14:24:55;13.10;;;6.20;;
39750;SDS011;37579;51.074;17.004;2022-12-11T14:27:27;12.98;;;6.25;;
39750;SDS011;37579;51.074;17.004;2022-12-11T14:29:54;10.43;;;5.85;;
39750;SDS011;37579;51.074;17.004;2022-12-11T14:32:36;11.40;;;6.00;;
39750;SDS011;37579;51.074;17.004;2022-12-11T14:35:10;12.80;;;6.22;;
39750;SDS011;37579;51.074;17.004;2022-12-11T14:37:48;9.00;;;5.75;;
39750;SDS011;37579;51.074;17.004;2022-12-11T14:40:17;10.43;;;5.75;;
39750;SDS011;37579;51.074;17.004;2022-12-11T14:42:46;13.13;;;6.07;;
39750;SDS011;37579;51.074;17.004;2022-12-11T14:47:52;10.25;;;5.47;;
39750;SDS011;37579;51.074;17.004;2022-12-11T14:50:21;12.25;;;5.68;;
39750;SDS011;37579;51.074;17.004;2022-12-11T14:52:57;8.30;;;4.72;;
39750;SDS011;37579;51.074;17.004;2022-12-11T14:55:29;9.18;;;4.68;;
39750;SDS011;37579;51.074;17.004;2022-12-11T14:58:00;9.35;;;4.78;;
39750;SDS011;37579;51.074;17.004;2022-12-11T15:00:35;10.37;;;5.37;;
39750;SDS011;37579;51.074;17.004;2022-12-11T15:03:06;9.02;;;4.93;;
39750;SDS011;37579;51.074;17.004;2022-12-11T15:05:50;7.18;;;4.65;;
39750;SDS011;37579;51.074;17.004;2022-12-11T15:08:23;7.90;;;4.80;;
39750;SDS011;37579;51.074;17.004;2022-12-11T15:13:35;8.48;;;4.32;;
39750;SDS011;37579;51.074;17.004;2022-12-11T15:16:12;8.18;;;4.68;;
39750;SDS011;37579;51.074;17.004;2022-12-11T15:18:39;8.43;;;4.68;;
39750;SDS011;37579;51.074;17.004;2022-12-11T15:21:07;8.02;;;4.60;;
39750;SDS011;37579;51.074;17.004;2022-12-11T15:24:19;6.97;;;4.05;;
39750;SDS011;37579;51.074;17.004;2022-12-11T15:26:45;6.75;;;4.40;;
39750;SDS011;37579;51.074;17.004;2022-12-11T15:34:34;6.78;;;3.92;;
39750;SDS011;37579;51.074;17.004;2022-12-11T15:39:48;7.60;;;3.40;;
39750;SDS011;37579;51.074;17.004;2022-12-11T15:42:17;6.60;;;3.80;;
39750;SDS011;37579;51.074;17.004;2022-12-11T15:45:05;5.40;;;3.97;;
39750;SDS011;37579;51.074;17.004;2022-12-11T15:47:33;7.53;;;3.78;;
39750;SDS011;37579;51.074;17.004;2022-12-11T15:50:09;6.82;;;3.85;;
39750;SDS011;37579;51.074;17.004;2022-12-11T15:52:41;6.00;;;4.00;;
39750;SDS011;37579;51.074;17.004;2022-12-11T15:55:08;6.03;;;3.28;;
39750;SDS011;37579;51.074;17.004;2022-12-11T15:57:34;6.15;;;3.85;;
39750;SDS011;37579;51.074;17.004;2022-12-11T16:00:00;6.97;;;3.70;;
39750;SDS011;37579;51.074;17.004;2022-12-11T16:02:26;5.45;;;3.45;;
39750;SDS011;37579;51.074;17.004;2022-12-11T16:04:54;5.03;;;3.30;;
39750;SDS011;37579;51.074;17.004;2022-12-11T16:07:21;6.47;;;3.33;;
39750;SDS011;37579;51.074;17.004;2022-12-11T16:09:48;5.53;;;3.55;;
39750;SDS011;37579;51.074;17.004;2022-12-11T16:12:14;6.07;;;3.45;;
39750;SDS011;37579;51.074;17.004;2022-12-11T16:14:40;5.93;;;3.28;;
39750;SDS011;37579;51.074;17.004;2022-12-11T16:17:07;4.63;;;3.20;;
39750;SDS011;37579;51.074;17.004;2022-12-11T16:19:34;5.10;;;3.22;;
39750;SDS011;37579;51.074;17.004;2022-12-11T16:22:00;5.03;;;3.22;;
39750;SDS011;37579;51.074;17.004;2022-12-11T16:24:26;4.60;;;3.10;;
39750;SDS011;37579;51.074;17.004;2022-12-11T16:26:52;5.13;;;3.08;;
39750;SDS011;37579;51.074;17.004;2022-12-11T16:29:18;6.57;;;3.20;;